Latest Coastal Weather Observations for Marion Reef

IDQ60701

Issued at 4:51 pm EST Thursday 26 May 2016 (issued every 10 minutes, with the page automatically refreshed every 10 minutes)

About coastal observations | Map of coastal stations | Coastal observations for QLD | Marine services | Other Formats
Station Details ID: 200704 Name: MARION REEF Lat: -19.10 Lon: 152.39 Height: 2.0 m
Data from the previous 72 hours. | See also: Recent months for locations in Queensland
Date/Time
EST
Temp

°C
Wind Pressure Rain
since 9am
mm
Weather Cloud Vis
km
Sea
Height
m
Swell
Dir
 
Speed
knots
Gust
knots
hPa Trend Height
m
Period
s
Dir
26/04:30pm 26.6 NE 8 10 1013.3 - - - - - - - - -
26/04:00pm 26.6 NE 8 9 1013.1 - - - - - - - - -
26/03:30pm 26.3 ENE 8 10 1013.1 - - - - - - - - -
26/03:00pm 26.7 ENE 7 10 1013.2 - - - - - - - - -
26/02:30pm 26.5 E 8 10 1013.5 - - - - - - - - -
26/02:00pm 26.5 E 8 9 1013.6 - - - - - - - - -
26/01:30pm 26.3 ENE 10 12 1013.6 - - - - - - - - -
26/01:00pm 26.3 E 10 12 1013.8 - - - - - - - - -
26/12:30pm 26.2 ENE 10 13 1014.4 - - - - - - - - -
26/12:00pm 26.5 E 11 14 1014.8 - - - - - - - - -
26/11:30am 26.5 ENE 11 13 1015.2 - - - - - - - - -
26/11:00am 26.6 ENE 11 13 1015.5 - - - - - - - - -
26/10:30am 26.7 E 10 12 1016.1 - - - - - - - - -
26/10:00am 26.4 E 11 13 1016.2 - - - - - - - - -
26/09:30am 26.7 E 11 13 1016.3 - - - - - - - - -
26/09:00am 26.5 E 11 13 1016.4 - - - - - - - - -
26/08:30am 26.5 E 11 13 1016.5 - - - - - - - - -
26/08:00am 26.2 E 11 13 1016.2 - - - - - - - - -
26/07:30am 26.0 ESE 10 12 1016.0 - - - - - - - - -
26/07:00am 25.9 E 9 12 1015.7 - - - - - - - - -
26/06:30am 26.0 E 11 13 1015.3 - - - - - - - - -
26/06:00am 25.9 E 10 11 1014.9 - - - - - - - - -
26/05:30am 25.7 E 11 12 1014.6 - - - - - - - - -
26/05:00am 25.6 E 11 14 1014.3 - - - - - - - - -
26/04:30am 25.7 E 11 13 1014.3 - - - - - - - - -
26/04:00am 25.6 E 11 13 1014.2 - - - - - - - - -
26/03:30am 25.5 ESE 12 15 1014.6 - - - - - - - - -
26/03:00am 25.9 E 10 13 1014.5 - - - - - - - - -
26/02:30am 25.8 ESE 12 14 1014.7 - - - - - - - - -
26/02:00am 25.3 ESE 12 15 1014.7 - - - - - - - - -
26/01:30am 25.8 ESE 11 14 1015.3 - - - - - - - - -
26/01:00am 25.6 ESE 11 14 1015.4 - - - - - - - - -
26/12:30am 25.7 SE 12 15 1015.6 - - - - - - - - -
26/12:00am 25.7 ESE 12 14 1015.7 - - - - - - - - -
 
Date/Time
EST
Temp

°C
Wind Pressure Rain
since 9am
mm
Weather Cloud Vis
km
Sea
Height
m
Swell
Dir
 
Speed
knots
Gust
knots
hPa Trend Height
m
Period
s
Dir
25/11:30pm 25.7 ESE 13 14 1015.9 - - - - - - - - -
25/11:00pm 25.9 E 12 15 1016.0 - - - - - - - - -
25/10:30pm 25.9 E 14 16 1016.0 - - - - - - - - -
25/10:00pm 25.9 E 15 18 1015.8 - - - - - - - - -
25/09:30pm 25.9 E 14 17 1016.2 - - - - - - - - -
25/09:00pm 26.1 E 14 16 1016.2 - - - - - - - - -
25/08:30pm 25.8 ESE 14 17 1016.4 - - - - - - - - -
25/08:00pm 25.8 ESE 15 17 1016.0 - - - - - - - - -
25/07:30pm 26.1 ESE 15 18 1015.7 - - - - - - - - -
25/07:00pm 26.1 ESE 14 16 1015.5 - - - - - - - - -
25/06:30pm 25.9 ESE 15 18 1015.0 - - - - - - - - -
25/06:00pm 25.5 SE 14 17 1014.7 - - - - - - - - -
25/05:30pm 25.7 SE 13 15 1014.5 - - - - - - - - -
25/05:00pm 25.6 ESE 13 15 1014.0 - - - - - - - - -
25/04:30pm 25.3 SE 12 14 1014.1 - - - - - - - - -
25/04:00pm 25.3 SE 14 17 1013.7 - - - - - - - - -
25/03:30pm 25.5 ESE 12 13 1013.7 - - - - - - - - -
25/03:00pm 25.5 SSE 13 15 1013.8 - - - - - - - - -
25/02:30pm 25.5 SE 13 15 1013.8 - - - - - - - - -
25/02:00pm 25.5 SSE 15 17 1014.1 - - - - - - - - -
25/01:30pm 25.7 SE 12 14 1014.4 - - - - - - - - -
25/01:00pm 25.5 SE 9 11 1014.9 - - - - - - - - -
25/12:30pm 25.6 SE 8 11 1015.4 - - - - - - - - -
25/12:00pm 25.5 ESE 9 11 1015.7 - - - - - - - - -
25/11:30am 25.7 ESE 11 12 1015.8 - - - - - - - - -
25/11:00am 26.0 ESE 11 13 1015.6 - - - - - - - - -
25/10:30am 25.6 ESE 12 15 1016.1 - - - - - - - - -
25/10:00am 25.6 SE 13 15 1015.9 - - - - - - - - -
25/09:30am 25.5 ESE 13 14 1016.2 - - - - - - - - -
25/09:00am 25.4 ESE 13 15 1016.0 - - - - - - - - -
25/08:30am 25.5 ESE 14 16 1015.6 - - - - - - - - -
25/08:00am 25.7 SE 13 15 1015.3 - - - - - - - - -
25/07:30am 25.3 SE 12 15 1015.2 - - - - - - - - -
25/07:00am 25.3 SE 13 16 1014.7 - - - - - - - - -
25/06:30am 25.1 SE 12 15 1014.9 - - - - - - - - -
25/06:00am 25.2 SE 13 14 1014.6 - - - - - - - - -
25/05:30am 25.1 ESE 11 15 1014.7 - - - - - - - - -
25/05:00am 25.2 SE 11 13 1014.3 - - - - - - - - -
25/04:30am 25.4 ESE 11 13 1014.3 - - - - - - - - -
25/04:00am 25.3 SE 11 13 1014.2 - - - - - - - - -
25/03:30am 25.2 SE 11 14 1014.7 - - - - - - - - -
25/03:00am 25.1 SE 10 11 1014.6 - - - - - - - - -
25/02:30am 25.2 SE 10 12 1015.0 - - - - - - - - -
25/02:00am 25.2 ESE 10 13 1015.2 - - - - - - - - -
25/01:30am 25.2 ESE 11 13 1015.5 - - - - - - - - -
25/01:00am 25.2 ESE 12 13 1015.2 - - - - - - - - -
25/12:30am 25.5 ESE 12 15 1016.0 - - - - - - - - -
25/12:00am 25.1 SE 13 16 1015.7 - - - - - - - - -
 
Date/Time
EST
Temp

°C
Wind Pressure Rain
since 9am
mm
Weather Cloud Vis
km
Sea
Height
m
Swell
Dir
 
Speed
knots
Gust
knots
hPa Trend Height
m
Period
s
Dir
24/11:30pm 25.4 ESE 13 15 1016.0 - - - - - - - - -
24/11:00pm 25.6 SE 13 16 1016.2 - - - - - - - - -
24/10:30pm 25.5 SE 14 16 1016.5 - - - - - - - - -
24/10:00pm 25.6 SE 14 17 1016.4 - - - - - - - - -
24/09:30pm 25.7 ESE 13 16 1016.5 - - - - - - - - -
24/09:00pm 25.6 ESE 13 15 1016.4 - - - - - - - - -
24/08:30pm 25.7 SE 13 18 1016.5 - - - - - - - - -
24/08:00pm 25.8 ESE 13 15 1016.2 - - - - - - - - -
24/07:30pm 25.7 SE 13 15 1016.2 - - - - - - - - -
24/07:00pm 25.8 ESE 13 16 1015.9 - - - - - - - - -
24/06:30pm 25.7 SE 12 15 1015.9 - - - - - - - - -
24/06:00pm 25.6 ESE 12 14 1015.5 - - - - - - - - -
24/05:30pm 25.8 ESE 12 15 1015.2 - - - - - - - - -
24/05:00pm 25.8 SE 12 14 1015.0 - - - - - - - - -
24/04:30pm 25.8 SE 12 14 1014.8 - - - - - - - - -
24/04:00pm 25.7 SE 12 14 1014.5 - - - - - - - - -
24/03:30pm 25.9 SE 12 13 1014.3 - - - - - - - - -
24/03:00pm 25.9 SE 13 17 1013.9 - - - - - - - - -
24/02:30pm 25.9 SE 14 17 1013.7 - - - - - - - - -
24/02:00pm 25.8 SE 15 18 1013.5 - - - - - - - - -
24/01:30pm 25.9 SE 15 18 1013.7 - - - - - - - - -
24/01:00pm 25.7 SE 15 17 1013.7 - - - - - - - - -
24/12:30pm 25.8 SE 15 18 1014.1 - - - - - - - - -
24/12:00pm 25.9 SE 16 19 1014.5 - - - - - - - - -
24/11:30am 25.5 SE 15 19 1015.2 - - - - - - - - -
24/11:00am 25.8 ESE 16 19 1015.2 - - - - - - - - -
24/10:30am 25.8 ESE 15 18 1015.8 - - - - - - - - -
24/10:00am 25.5 SE 15 18 1015.8 - - - - - - - - -
24/09:30am 25.7 ESE 15 18 1016.5 - - - - - - - - -
24/09:00am 25.6 SE 16 18 1016.2 - - - - - - - - -
24/08:30am 25.5 SE 16 19 1016.1 - - - - - - - - -
24/08:00am 25.5 SE 15 19 1016.1 - - - - - - - - -
24/07:30am 25.6 SE 15 18 1016.1 - - - - - - - - -
24/07:00am 25.6 SE 15 18 1016.0 - - - - - - - - -
24/06:30am 25.3 SE 16 18 1015.8 - - - - - - - - -
24/06:00am 25.4 SE 15 17 1015.7 - - - - - - - - -
24/05:30am 25.5 SE 14 16 1015.6 - - - - - - - - -
24/05:00am 25.8 SE 12 16 1015.5 - - - - - - - - -
24/04:30am 25.6 SE 15 17 1015.3 - - - - - - - - -
24/04:00am 25.3 SE 14 16 1015.5 - - - - - - - - -
24/03:30am 25.5 SSE 13 16 1015.5 - - - - - - - - -
24/03:00am 25.3 SE 15 16 1015.2 - - - - - - - - -
24/02:30am 25.5 SSE 13 16 1015.6 - - - - - - - - -
24/02:00am 25.5 SE 14 18 1015.4 - - - - - - - - -
24/01:30am 25.6 SE 13 16 1015.7 - - - - - - - - -
24/01:00am 25.7 SE 12 14 1016.0 - - - - - - - - -
24/12:30am 25.7 SSE 13 15 1016.0 - - - - - - - - -
24/12:00am 25.5 SSE 14 15 1016.0 - - - - - - - - -
 
Date/Time
EST
Temp

°C
Wind Pressure Rain
since 9am
mm
Weather Cloud Vis
km
Sea
Height
m
Swell
Dir
 
Speed
knots
Gust
knots
hPa Trend Height
m
Period
s
Dir
23/11:30pm 25.6 SE 14 16 1016.1 - - - - - - - - -
23/11:00pm 25.6 ESE 13 17 1016.1 - - - - - - - - -
23/10:30pm 25.6 SE 13 15 1016.3 - - - - - - - - -
23/10:00pm 25.7 SE 14 16 1016.1 - - - - - - - - -
23/09:30pm 25.7 SE 14 17 1016.1 - - - - - - - - -
23/09:00pm 25.6 SE 14 18 1016.2 - - - - - - - - -
23/08:30pm 25.6 SE 14 16 1016.7 - - - - - - - - -
23/08:00pm 25.8 SSE 12 14 1016.7 - - - - - - - - -
23/07:30pm 25.5 SSE 13 15 1016.6 - - - - - - - - -
23/07:00pm 25.6 SSE 13 15 1016.4 - - - - - - - - -
23/06:30pm 25.5 SSE 15 18 1016.0 - - - - - - - - -
23/06:00pm 25.5 SSE 13 16 1015.7 - - - - - - - - -
23/05:30pm 25.6 SSE 13 16 1015.5 - - - - - - - - -
23/05:00pm 25.5 SSE 12 14 1015.4 - - - - - - - - -

Other Formats:

Comma delimited format used in spreadsheet applications
http://www.bom.gov.au/fwo/IDQ60701/IDQ60701.94298.axf

JavaScript Object Notation format (JSON) in row-major order
http://www.bom.gov.au/fwo/IDQ60701/IDQ60701.94298.json